createdAt,value
2018-03-03T00:00:12.767Z,-0.75
2018-03-03T00:01:12.802Z,-0.75
2018-03-03T00:02:12.778Z,-0.75
2018-03-03T00:03:12.783Z,-0.69
2018-03-03T00:04:12.779Z,-0.69
2018-03-03T00:05:12.786Z,-0.69
2018-03-03T00:06:12.821Z,-0.69
2018-03-03T00:07:12.808Z,-0.69
2018-03-03T00:08:12.805Z,-0.69
2018-03-03T00:09:12.825Z,-0.75
2018-03-03T00:10:12.799Z,-0.69
2018-03-03T00:11:12.823Z,-0.69
2018-03-03T00:12:12.851Z,-0.69
2018-03-03T00:13:12.814Z,-0.62
2018-03-03T00:14:12.827Z,-0.62
2018-03-03T00:15:12.829Z,-0.62
2018-03-03T00:16:13.046Z,-0.62
2018-03-03T00:17:12.900Z,-0.62
2018-03-03T00:18:12.846Z,-0.62
2018-03-03T00:19:12.844Z,-0.62
2018-03-03T00:20:12.848Z,-0.62
2018-03-03T00:21:12.879Z,-0.69
2018-03-03T00:22:12.880Z,-0.62
2018-03-03T00:23:12.863Z,-0.62
2018-03-03T00:24:12.862Z,-0.69
2018-03-03T00:25:12.879Z,-0.69
2018-03-03T00:26:12.860Z,-0.69
2018-03-03T00:27:12.876Z,-0.69
2018-03-03T00:28:12.865Z,-0.69
2018-03-03T00:29:12.872Z,-0.69
2018-03-03T00:30:12.866Z,-0.69
2018-03-03T00:31:12.885Z,-0.75
2018-03-03T00:32:12.921Z,-0.69
2018-03-03T00:33:12.882Z,-0.75
2018-03-03T00:34:12.876Z,-0.69
2018-03-03T00:35:12.882Z,-0.69
2018-03-03T00:36:12.882Z,-0.69
2018-03-03T00:37:12.899Z,-0.69
2018-03-03T00:38:12.886Z,-0.69
2018-03-03T00:39:12.888Z,-0.69
2018-03-03T00:40:12.894Z,-0.69
2018-03-03T00:41:12.908Z,-0.75
2018-03-03T00:42:12.924Z,-0.69
2018-03-03T00:43:12.942Z,-0.69
2018-03-03T00:44:12.944Z,-0.69
2018-03-03T00:45:12.993Z,-0.69
2018-03-03T00:46:12.935Z,-0.69
2018-03-03T00:47:12.931Z,-0.69
2018-03-03T00:48:12.950Z,-0.69
2018-03-03T00:49:12.942Z,-0.69
2018-03-03T00:50:12.959Z,-0.69
2018-03-03T00:51:12.935Z,-0.62
2018-03-03T00:52:12.963Z,-0.69
2018-03-03T00:53:13.049Z,-0.56
2018-03-03T00:54:12.960Z,-0.62
2018-03-03T00:55:12.979Z,-0.62
2018-03-03T00:56:12.952Z,-0.62
2018-03-03T00:57:12.995Z,-0.62
2018-03-03T00:58:12.962Z,-0.62
2018-03-03T00:59:13.008Z,-0.62
2018-03-03T01:00:13.261Z,-0.62
2018-03-03T01:01:12.967Z,-0.62
2018-03-03T01:02:13.011Z,-0.69
2018-03-03T01:03:12.999Z,-0.62
2018-03-03T01:04:12.990Z,-0.69
2018-03-03T01:05:13.030Z,-0.62
2018-03-03T01:06:12.983Z,-0.62
2018-03-03T01:07:13.028Z,-0.62
2018-03-03T01:08:13.004Z,-0.62
2018-03-03T01:09:13.005Z,-0.62
2018-03-03T01:10:13.022Z,-0.62
2018-03-03T01:11:13.041Z,-0.62
2018-03-03T01:12:13.021Z,-0.62
2018-03-03T01:13:13.024Z,-0.62
2018-03-03T01:14:13.025Z,-0.56
2018-03-03T01:15:13.076Z,-0.56
2018-03-03T01:16:13.037Z,-0.62
2018-03-03T01:17:13.038Z,-0.62
2018-03-03T01:18:13.063Z,-0.56
2018-03-03T01:19:13.052Z,-0.62
2018-03-03T01:20:13.033Z,-0.56
2018-03-03T01:21:13.029Z,-0.62
2018-03-03T01:23:13.071Z,-0.62
2018-03-03T01:24:13.049Z,-0.56
2018-03-03T01:25:13.054Z,-0.62
2018-03-03T01:26:13.050Z,-0.62
2018-03-03T01:27:13.486Z,-0.56
2018-03-03T01:28:13.063Z,-0.56
2018-03-03T01:29:13.054Z,-0.56
2018-03-03T01:30:13.127Z,-0.56
2018-03-03T01:31:13.113Z,-0.56
2018-03-03T01:32:13.141Z,-0.56
2018-03-03T01:33:13.118Z,-0.56
2018-03-03T01:34:13.082Z,-0.5
2018-03-03T01:35:13.076Z,-0.56
2018-03-03T01:36:13.078Z,-0.56
2018-03-03T01:37:13.121Z,-0.56
2018-03-03T01:38:13.119Z,-0.56
2018-03-03T01:40:13.181Z,-0.5
2018-03-03T01:41:13.110Z,-0.5
2018-03-03T01:42:13.125Z,-0.56
2018-03-03T01:43:13.114Z,-0.56
2018-03-03T01:44:13.216Z,-0.56
2018-03-03T01:45:13.108Z,-0.56
2018-03-03T01:46:13.116Z,-0.5
2018-03-03T01:47:13.126Z,-0.56
2018-03-03T01:48:13.131Z,-0.56
2018-03-03T01:49:13.118Z,-0.5
2018-03-03T01:50:13.125Z,-0.56
2018-03-03T01:51:13.130Z,-0.56
2018-03-03T01:52:13.134Z,-0.5
2018-03-03T01:53:13.137Z,-0.5
2018-03-03T01:54:13.163Z,-0.56
2018-03-03T01:55:13.137Z,-0.5
2018-03-03T01:56:13.197Z,-0.56
2018-03-03T01:57:13.155Z,-0.56
2018-03-03T01:58:13.172Z,-0.56
2018-03-03T01:59:13.190Z,-0.56
2018-03-03T02:00:13.159Z,-0.56
2018-03-03T02:01:13.151Z,-0.56
2018-03-03T02:02:13.175Z,-0.56
2018-03-03T02:03:13.166Z,-0.56
2018-03-03T02:04:13.179Z,-0.56
2018-03-03T02:05:13.209Z,-0.56
2018-03-03T02:06:13.158Z,-0.56
2018-03-03T02:07:13.166Z,-0.56
2018-03-03T02:08:13.179Z,-0.56
2018-03-03T02:09:13.195Z,-0.56
2018-03-03T02:10:13.170Z,-0.56
2018-03-03T02:11:13.176Z,-0.56
2018-03-03T02:12:13.190Z,-0.56
2018-03-03T02:13:13.208Z,-0.56
2018-03-03T02:14:13.202Z,-0.5
2018-03-03T02:15:13.208Z,-0.56
2018-03-03T02:16:13.212Z,-0.5
2018-03-03T02:17:13.222Z,-0.56
2018-03-03T02:18:13.230Z,-0.56
2018-03-03T02:19:13.204Z,-0.5
2018-03-03T02:20:13.221Z,-0.5
2018-03-03T02:21:13.230Z,-0.56
2018-03-03T02:22:13.221Z,-0.5
2018-03-03T02:23:13.210Z,-0.56
2018-03-03T02:24:13.245Z,-0.5
2018-03-03T02:26:19.530Z,-0.5
2018-03-03T02:27:13.257Z,-0.5
2018-03-03T02:28:13.237Z,-0.5
2018-03-03T02:29:13.247Z,-0.5
2018-03-03T02:30:13.275Z,-0.5
2018-03-03T02:32:19.428Z,-0.5
2018-03-03T02:33:13.292Z,-0.44
2018-03-03T02:34:13.319Z,-0.44
2018-03-03T02:35:13.258Z,-0.44
2018-03-03T02:36:13.263Z,-0.44
2018-03-03T02:37:13.295Z,-0.44
2018-03-03T02:38:13.329Z,-0.44
2018-03-03T02:39:13.312Z,-0.44
2018-03-03T02:40:13.285Z,-0.44
2018-03-03T02:41:13.275Z,-0.44
2018-03-03T02:42:13.335Z,-0.44
2018-03-03T02:43:13.340Z,-0.44
2018-03-03T02:44:13.290Z,-0.44
2018-03-03T02:45:13.347Z,-0.37
2018-03-03T02:46:13.389Z,-0.37
2018-03-03T02:47:13.568Z,-0.31
2018-03-03T02:48:13.302Z,-0.31
2018-03-03T02:49:20.274Z,-0.31
2018-03-03T02:50:13.298Z,-0.37
2018-03-03T02:51:13.275Z,-0.37
2018-03-03T02:52:13.313Z,-0.37
2018-03-03T02:53:13.322Z,-0.31
2018-03-03T02:54:13.383Z,-0.37
2018-03-03T02:55:13.349Z,-0.37
2018-03-03T02:56:13.309Z,-0.37
2018-03-03T02:57:13.300Z,-0.37
2018-03-03T02:58:13.659Z,-0.37
2018-03-03T02:59:13.332Z,-0.44
2018-03-03T03:00:13.325Z,-0.44
2018-03-03T03:01:13.349Z,-0.44
2018-03-03T03:02:13.349Z,-0.37
2018-03-03T03:03:13.344Z,-0.44
2018-03-03T03:04:13.347Z,-0.44
2018-03-03T03:05:13.343Z,-0.5
2018-03-03T03:06:13.335Z,-0.56
2018-03-03T03:07:13.337Z,-0.56
2018-03-03T03:08:13.360Z,-0.5
2018-03-03T03:09:13.347Z,-0.5
2018-03-03T03:10:13.374Z,-0.56
2018-03-03T03:11:13.338Z,-0.62
2018-03-03T03:12:13.351Z,-0.62
2018-03-03T03:13:13.339Z,-0.62
2018-03-03T03:14:13.362Z,-0.56
2018-03-03T03:15:13.357Z,-0.62
2018-03-03T03:16:13.398Z,-0.56
2018-03-03T03:17:13.366Z,-0.62
2018-03-03T03:18:13.365Z,-0.62
2018-03-03T03:19:13.405Z,-0.62
2018-03-03T03:20:13.362Z,-0.62
2018-03-03T03:21:13.361Z,-0.62
2018-03-03T03:22:13.373Z,-0.69
2018-03-03T03:23:13.379Z,-0.69
2018-03-03T03:24:13.404Z,-0.75
2018-03-03T03:25:13.372Z,-0.69
2018-03-03T03:26:13.402Z,-0.75
2018-03-03T03:27:13.383Z,-0.69
2018-03-03T03:29:13.551Z,-0.75
2018-03-03T03:30:13.407Z,-0.69
2018-03-03T03:31:13.433Z,-0.69
2018-03-03T03:32:13.413Z,-0.69
2018-03-03T03:33:13.426Z,-0.62
2018-03-03T03:34:13.415Z,-0.69
2018-03-03T03:35:13.413Z,-0.62
2018-03-03T03:36:13.450Z,-0.62
2018-03-03T03:37:13.419Z,-0.62
2018-03-03T03:38:13.434Z,-0.62
2018-03-03T03:39:13.428Z,-0.56
2018-03-03T03:40:13.451Z,-0.62
2018-03-03T03:41:13.470Z,-0.56
2018-03-03T03:42:13.492Z,-0.56
2018-03-03T03:43:13.456Z,-0.56
2018-03-03T03:44:13.458Z,-0.56
2018-03-03T03:45:13.448Z,-0.56
2018-03-03T03:46:13.523Z,-0.56
2018-03-03T03:47:13.478Z,-0.56
2018-03-03T03:48:13.471Z,-0.5
2018-03-03T03:49:13.461Z,-0.62
2018-03-03T03:50:13.481Z,-0.62
2018-03-03T03:51:13.471Z,-0.69
2018-03-03T03:52:13.477Z,-0.75
2018-03-03T03:53:13.490Z,-0.75
2018-03-03T03:54:13.494Z,-0.75
2018-03-03T03:55:13.626Z,-0.75
2018-03-03T03:56:13.495Z,-0.75
2018-03-03T03:57:13.492Z,-0.69
2018-03-03T03:58:13.520Z,-0.69
2018-03-03T03:59:13.487Z,-0.69
2018-03-03T04:00:13.490Z,-0.62
2018-03-03T04:01:13.498Z,-0.69
2018-03-03T04:02:13.491Z,-0.62
2018-03-03T04:03:13.503Z,-0.62
2018-03-03T04:04:13.864Z,-0.62
2018-03-03T04:05:13.515Z,-0.62
2018-03-03T04:06:13.516Z,-0.62
2018-03-03T04:07:13.541Z,-0.62
2018-03-03T04:08:13.522Z,-0.62
2018-03-03T04:09:13.543Z,-0.62
2018-03-03T04:10:13.535Z,-0.62
2018-03-03T04:11:13.548Z,-0.56
2018-03-03T04:12:13.525Z,-0.56
2018-03-03T04:13:13.534Z,-0.56
2018-03-03T04:14:13.601Z,-0.62
2018-03-03T04:15:13.606Z,-0.62
2018-03-03T04:16:13.557Z,-0.62
2018-03-03T04:17:13.577Z,-0.62
2018-03-03T04:18:13.580Z,-0.62
2018-03-03T04:19:13.566Z,-0.56
2018-03-03T04:20:13.631Z,-0.62
2018-03-03T04:21:13.601Z,-0.62
2018-03-03T04:22:13.578Z,-0.62
2018-03-03T04:23:13.605Z,-0.62
2018-03-03T04:24:13.609Z,-0.62
2018-03-03T04:25:13.585Z,-0.56
2018-03-03T04:26:13.578Z,-0.62
2018-03-03T04:27:13.599Z,-0.62
2018-03-03T04:28:13.631Z,-0.62
2018-03-03T04:29:13.607Z,-0.62
2018-03-03T04:30:13.605Z,-0.69
2018-03-03T04:31:13.599Z,-0.69
2018-03-03T04:32:13.609Z,-0.75
2018-03-03T04:33:13.599Z,-0.75
2018-03-03T04:34:13.663Z,-0.69
2018-03-03T04:35:13.626Z,-0.69
2018-03-03T04:36:13.611Z,-0.69
2018-03-03T04:37:13.629Z,-0.69
2018-03-03T04:38:13.636Z,-0.69
2018-03-03T04:39:13.653Z,-0.69
2018-03-03T04:40:13.639Z,-0.69
2018-03-03T04:41:13.655Z,-0.69
2018-03-03T04:42:13.647Z,-0.69
2018-03-03T04:44:13.712Z,-0.69
2018-03-03T04:45:13.663Z,-0.75
2018-03-03T04:46:13.671Z,-0.75
2018-03-03T04:47:13.670Z,-0.81
2018-03-03T04:48:14.178Z,-0.75
2018-03-03T04:49:14.735Z,-0.75
2018-03-03T04:50:13.669Z,-0.75
2018-03-03T04:51:13.680Z,-0.75
2018-03-03T04:52:13.702Z,-0.75
2018-03-03T04:53:13.700Z,-0.75
2018-03-03T04:54:13.706Z,-0.69
2018-03-03T04:55:13.680Z,-0.75
2018-03-03T04:56:13.680Z,-0.69
2018-03-03T04:57:13.697Z,-0.75
2018-03-03T04:58:13.697Z,-0.69
2018-03-03T04:59:13.699Z,-0.75
2018-03-03T05:00:13.697Z,-0.69
2018-03-03T05:01:13.790Z,-0.69
2018-03-03T05:02:13.753Z,-0.75
2018-03-03T05:03:13.696Z,-0.75
2018-03-03T05:04:13.696Z,-0.75
2018-03-03T05:05:13.709Z,-0.75
2018-03-03T05:06:13.715Z,-0.75
2018-03-03T05:07:13.703Z,-0.81
2018-03-03T05:08:13.711Z,-0.88
2018-03-03T05:09:13.707Z,-0.81
2018-03-03T05:10:13.709Z,-0.88
2018-03-03T05:12:13.856Z,-0.88
2018-03-03T05:13:13.720Z,-0.81
2018-03-03T05:14:14.751Z,-0.81
2018-03-03T05:15:13.714Z,-0.81
2018-03-03T05:16:13.717Z,-0.88
2018-03-03T05:17:13.736Z,-0.88
2018-03-03T05:18:14.137Z,-0.94
2018-03-03T05:19:13.741Z,-0.94
2018-03-03T05:20:13.750Z,-0.94
2018-03-03T05:21:13.770Z,-0.88
2018-03-03T05:22:13.758Z,-0.88
2018-03-03T05:23:13.751Z,-0.81
2018-03-03T05:24:13.792Z,-0.81
2018-03-03T05:25:13.777Z,-0.81
2018-03-03T05:26:13.781Z,-0.81
2018-03-03T05:27:13.779Z,-0.81
2018-03-03T05:28:13.779Z,-0.88
2018-03-03T05:29:13.785Z,-0.88
2018-03-03T05:30:13.795Z,-0.88
2018-03-03T05:31:13.816Z,-0.81
2018-03-03T05:32:13.827Z,-0.81
2018-03-03T05:33:13.830Z,-0.81
2018-03-03T05:34:13.816Z,-0.81
2018-03-03T05:35:13.848Z,-0.81
2018-03-03T05:36:13.837Z,-0.88
2018-03-03T05:37:13.824Z,-0.88
2018-03-03T05:38:13.830Z,-0.88
2018-03-03T05:39:13.826Z,-0.81
2018-03-03T05:40:13.833Z,-0.81
2018-03-03T05:41:13.831Z,-0.81
2018-03-03T05:42:13.874Z,-0.81
2018-03-03T05:43:13.842Z,-0.81
2018-03-03T05:44:13.824Z,-0.75
2018-03-03T05:45:13.843Z,-0.75
2018-03-03T05:46:13.843Z,-0.75
2018-03-03T05:47:13.871Z,-0.81
2018-03-03T05:48:13.886Z,-0.81
2018-03-03T05:49:13.839Z,-0.81
2018-03-03T05:50:13.855Z,-0.75
2018-03-03T05:51:13.854Z,-0.81
2018-03-03T05:52:13.877Z,-0.75
2018-03-03T05:53:13.862Z,-0.75
2018-03-03T05:54:13.857Z,-0.75
2018-03-03T05:55:13.853Z,-0.75
2018-03-03T05:56:13.884Z,-0.75
2018-03-03T05:57:13.883Z,-0.75
2018-03-03T05:58:13.888Z,-0.69
2018-03-03T05:59:14.233Z,-0.75
2018-03-03T06:00:13.868Z,-0.69
2018-03-03T06:01:13.861Z,-0.69
2018-03-03T06:02:13.851Z,-0.69
2018-03-03T06:03:13.886Z,-0.69
2018-03-03T06:04:13.864Z,-0.69
2018-03-03T06:05:13.886Z,-0.62
2018-03-03T06:06:13.888Z,-0.69
2018-03-03T06:07:13.936Z,-0.62
2018-03-03T06:08:13.904Z,-0.69
2018-03-03T06:09:13.900Z,-0.62
2018-03-03T06:10:13.918Z,-0.62
2018-03-03T06:11:13.908Z,-0.62
2018-03-03T06:12:13.931Z,-0.62
2018-03-03T06:13:13.914Z,-0.56
2018-03-03T06:14:14.108Z,-0.56
2018-03-03T06:15:13.916Z,-0.56
2018-03-03T06:16:13.912Z,-0.56
2018-03-03T06:17:13.914Z,-0.56
2018-03-03T06:18:13.927Z,-0.56
2018-03-03T06:19:13.929Z,-0.56
2018-03-03T06:20:13.927Z,-0.62
2018-03-03T06:21:13.945Z,-0.62
2018-03-03T06:22:13.932Z,-0.62
2018-03-03T06:23:13.953Z,-0.62
2018-03-03T06:24:13.931Z,-0.69
2018-03-03T06:25:13.962Z,-0.62
2018-03-03T06:26:13.961Z,-0.69
2018-03-03T06:27:13.948Z,-0.62
2018-03-03T06:28:13.962Z,-0.69
2018-03-03T06:29:13.971Z,-0.75
2018-03-03T06:30:14.021Z,-0.75
2018-03-03T06:31:13.954Z,-0.75
2018-03-03T06:32:13.969Z,-0.81
2018-03-03T06:33:13.972Z,-0.75
2018-03-03T06:34:14.002Z,-0.75
2018-03-03T06:35:13.960Z,-0.75
2018-03-03T06:36:13.984Z,-0.75
2018-03-03T06:37:14.036Z,-0.75
2018-03-03T06:38:13.992Z,-0.75
2018-03-03T06:39:14.010Z,-0.75
2018-03-03T06:40:14.031Z,-0.81
2018-03-03T06:41:14.006Z,-0.81
2018-03-03T06:42:13.993Z,-0.75
2018-03-03T06:44:20.373Z,-0.75
2018-03-03T06:45:14.010Z,-0.75
2018-03-03T06:46:14.369Z,-0.75
2018-03-03T06:47:14.019Z,-0.75
2018-03-03T06:48:14.014Z,-0.69
2018-03-03T06:49:14.014Z,-0.69
2018-03-03T06:50:14.031Z,-0.62
2018-03-03T06:51:14.086Z,-0.69
2018-03-03T06:52:14.016Z,-0.62
2018-03-03T06:53:14.016Z,-0.69
2018-03-03T06:54:14.045Z,-0.69
2018-03-03T06:55:14.035Z,-0.62
2018-03-03T06:56:14.058Z,-0.62
2018-03-03T06:57:14.043Z,-0.62
2018-03-03T06:58:14.033Z,-0.56
2018-03-03T06:59:14.031Z,-0.62
2018-03-03T07:00:14.107Z,-0.69
2018-03-03T07:01:14.045Z,-0.69
2018-03-03T07:02:14.079Z,-0.62
2018-03-03T07:03:14.066Z,-0.62
2018-03-03T07:04:14.054Z,-0.56
2018-03-03T07:05:14.043Z,-0.56
2018-03-03T07:06:14.044Z,-0.56
2018-03-03T07:07:14.050Z,-0.56
2018-03-03T07:08:14.072Z,-0.56
2018-03-03T07:09:14.056Z,-0.56
2018-03-03T07:10:14.671Z,-0.5
2018-03-03T07:11:14.083Z,-0.5
2018-03-03T07:12:14.075Z,-0.5
2018-03-03T07:13:14.105Z,-0.5
2018-03-03T07:14:14.108Z,-0.5
2018-03-03T07:15:14.087Z,-0.44
2018-03-03T07:16:14.088Z,-0.44
2018-03-03T07:17:14.170Z,-0.37
2018-03-03T07:18:14.110Z,-0.37
2018-03-03T07:19:14.117Z,-0.37
2018-03-03T07:20:14.215Z,-0.37
2018-03-03T07:21:14.206Z,-0.31
2018-03-03T07:22:14.146Z,-0.31
2018-03-03T07:23:14.165Z,-0.25
2018-03-03T07:24:14.138Z,-0.25
2018-03-03T07:25:14.177Z,-0.19
2018-03-03T07:26:14.120Z,-0.25
2018-03-03T07:27:14.130Z,-0.19
2018-03-03T07:28:14.131Z,-0.25
2018-03-03T07:29:14.153Z,-0.19
2018-03-03T07:30:14.172Z,-0.19
2018-03-03T07:31:14.153Z,-0.19
2018-03-03T07:32:14.164Z,-0.19
2018-03-03T07:33:14.164Z,-0.13
2018-03-03T07:34:14.162Z,-0.06
2018-03-03T07:35:14.267Z,-0.06
2018-03-03T07:36:14.172Z,-0.06
2018-03-03T07:37:14.160Z,-0.06
2018-03-03T07:38:14.172Z,0
2018-03-03T07:39:14.208Z,-0.06
2018-03-03T07:40:14.188Z,0
2018-03-03T07:41:14.185Z,0
2018-03-03T07:42:14.190Z,0
2018-03-03T07:43:14.236Z,0.06
2018-03-03T07:44:14.195Z,0.06
2018-03-03T07:45:14.213Z,0.06
2018-03-03T07:46:14.207Z,0.13
2018-03-03T07:47:14.200Z,0.13
2018-03-03T07:48:14.197Z,0.19
2018-03-03T07:49:14.215Z,0.13
2018-03-03T07:50:14.211Z,0.13
2018-03-03T07:51:14.232Z,0.13
2018-03-03T07:52:14.382Z,0.13
2018-03-03T07:53:14.238Z,0.13
2018-03-03T07:54:14.238Z,0.13
2018-03-03T07:55:14.284Z,0.19
2018-03-03T07:56:14.234Z,0.19
2018-03-03T07:57:14.256Z,0.25
2018-03-03T07:58:14.232Z,0.25
2018-03-03T07:59:14.252Z,0.31
2018-03-03T08:00:14.382Z,0.25
2018-03-03T08:01:14.267Z,0.37
2018-03-03T08:02:14.273Z,0.31
2018-03-03T08:03:14.279Z,0.37
2018-03-03T08:04:14.275Z,0.37
2018-03-03T08:05:14.313Z,0.37
2018-03-03T08:06:14.281Z,0.37
2018-03-03T08:07:14.289Z,0.37
2018-03-03T08:08:14.299Z,0.37
2018-03-03T08:09:14.302Z,0.37
2018-03-03T08:10:14.292Z,0.37
2018-03-03T08:11:14.319Z,0.37
2018-03-03T08:12:14.313Z,0.37
2018-03-03T08:13:14.304Z,0.37
2018-03-03T08:14:14.290Z,0.44
2018-03-03T08:15:14.305Z,0.44
2018-03-03T08:16:14.374Z,0.5
2018-03-03T08:17:14.322Z,0.5
2018-03-03T08:19:14.348Z,0.5
2018-03-03T08:20:14.338Z,0.56
2018-03-03T08:21:14.353Z,0.56
2018-03-03T08:22:14.350Z,0.56
2018-03-03T08:23:14.349Z,0.56
2018-03-03T08:24:14.375Z,0.62
2018-03-03T08:25:14.424Z,0.62
2018-03-03T08:26:14.378Z,0.62
2018-03-03T08:27:14.393Z,0.69
2018-03-03T08:28:14.353Z,0.69
2018-03-03T08:29:14.375Z,0.69
2018-03-03T08:30:14.387Z,0.75
2018-03-03T08:31:14.363Z,0.75
2018-03-03T08:32:14.378Z,0.75
2018-03-03T08:33:14.376Z,0.75
2018-03-03T08:34:14.368Z,0.75
2018-03-03T08:35:14.391Z,0.75
2018-03-03T08:36:14.391Z,0.75
2018-03-03T08:37:14.364Z,0.81
2018-03-03T08:38:14.378Z,0.88
2018-03-03T08:39:14.429Z,0.88
2018-03-03T08:40:14.382Z,0.88
2018-03-03T08:41:14.377Z,0.94
2018-03-03T08:42:14.402Z,0.94
2018-03-03T08:43:14.380Z,0.94
2018-03-03T08:46:14.469Z,1
2018-03-03T08:47:14.398Z,1
2018-03-03T08:48:14.411Z,1.06
2018-03-03T08:49:14.714Z,1.06
2018-03-03T08:51:20.860Z,1
2018-03-03T08:52:14.472Z,1
2018-03-03T08:53:14.444Z,1.06
2018-03-03T08:54:14.445Z,1.06
2018-03-03T08:55:14.406Z,1.06
2018-03-03T08:56:14.433Z,1.06
2018-03-03T08:57:14.701Z,1.06
2018-03-03T08:58:14.450Z,1.12
2018-03-03T08:59:14.468Z,1.12
2018-03-03T09:00:14.435Z,1.12
2018-03-03T09:01:14.546Z,1.12
2018-03-03T09:02:14.470Z,1.12
2018-03-03T09:03:14.466Z,1.19
2018-03-03T09:04:14.464Z,1.19
2018-03-03T09:05:14.512Z,1.19
2018-03-03T09:06:14.560Z,1.19
2018-03-03T09:07:14.478Z,1.19
2018-03-03T09:08:14.464Z,1.19
2018-03-03T09:09:14.460Z,1.19
2018-03-03T09:10:14.463Z,1.19
2018-03-03T09:11:14.481Z,1.25
2018-03-03T09:12:14.495Z,1.25
2018-03-03T09:13:14.471Z,1.31
2018-03-03T09:14:14.483Z,1.31
2018-03-03T09:15:14.485Z,1.31
2018-03-03T09:16:14.551Z,1.37
2018-03-03T09:17:14.497Z,1.37
2018-03-03T09:18:14.511Z,1.37
2018-03-03T09:19:14.517Z,1.44
2018-03-03T09:20:14.523Z,1.44
2018-03-03T09:21:14.540Z,1.5
2018-03-03T09:22:14.585Z,1.44
2018-03-03T09:23:14.525Z,1.5
2018-03-03T09:24:14.555Z,1.56
2018-03-03T09:25:14.611Z,1.56
2018-03-03T09:26:14.545Z,1.56
2018-03-03T09:27:14.534Z,1.56
2018-03-03T09:28:14.542Z,1.62
2018-03-03T09:29:14.530Z,1.62
2018-03-03T09:30:14.699Z,1.62
2018-03-03T09:31:14.531Z,1.62
2018-03-03T09:32:14.592Z,1.69
2018-03-03T09:33:14.548Z,1.69
2018-03-03T09:34:14.553Z,1.75
2018-03-03T09:35:14.589Z,1.75
2018-03-03T09:36:15.328Z,1.75
2018-03-03T09:37:14.541Z,1.75
2018-03-03T09:38:14.578Z,1.81
2018-03-03T09:39:14.600Z,1.87
2018-03-03T09:40:14.607Z,1.87
2018-03-03T09:41:14.554Z,1.94
2018-03-03T09:42:14.586Z,1.94
2018-03-03T09:43:14.555Z,2.06
2018-03-03T09:44:14.703Z,2.12
2018-03-03T09:45:14.593Z,2.19
2018-03-03T09:46:14.737Z,2.31
2018-03-03T09:47:14.640Z,2.31
2018-03-03T09:48:14.597Z,2.37
2018-03-03T09:49:14.619Z,2.5
2018-03-03T09:50:14.647Z,2.5
2018-03-03T09:51:14.608Z,2.56
2018-03-03T09:52:14.602Z,2.56
2018-03-03T09:53:14.847Z,2.62
2018-03-03T09:54:14.620Z,2.69
2018-03-03T09:55:14.625Z,2.69
2018-03-03T09:56:14.634Z,2.75
2018-03-03T09:57:14.628Z,2.81
2018-03-03T09:58:14.627Z,2.87
2018-03-03T09:59:14.630Z,2.87
2018-03-03T10:00:14.620Z,2.94
2018-03-03T10:01:14.628Z,2.94
2018-03-03T10:02:14.666Z,3
2018-03-03T10:03:14.639Z,3
2018-03-03T10:04:14.651Z,2.94
2018-03-03T10:05:14.642Z,2.94
2018-03-03T10:06:14.678Z,3
2018-03-03T10:07:14.678Z,3
2018-03-03T10:08:14.659Z,2.94
2018-03-03T10:09:14.680Z,3
2018-03-03T10:10:14.658Z,3
2018-03-03T10:11:14.660Z,3
2018-03-03T10:12:14.681Z,2.94
2018-03-03T10:13:14.658Z,2.94
2018-03-03T10:14:14.663Z,2.94
2018-03-03T10:15:14.856Z,2.87
2018-03-03T10:16:14.984Z,2.87
2018-03-03T10:17:14.797Z,2.87
2018-03-03T10:18:14.698Z,2.75
2018-03-03T10:19:14.694Z,2.69
2018-03-03T10:20:14.722Z,2.69
2018-03-03T10:21:14.700Z,2.69
2018-03-03T10:22:14.747Z,2.75
2018-03-03T10:23:14.710Z,2.75
2018-03-03T10:24:14.715Z,2.81
2018-03-03T10:25:14.868Z,2.81
2018-03-03T10:26:14.864Z,2.81
2018-03-03T10:27:15.063Z,2.87
2018-03-03T10:28:14.781Z,2.87
2018-03-03T10:29:14.754Z,2.94
2018-03-03T10:30:14.756Z,2.94
2018-03-03T10:31:14.772Z,2.75
2018-03-03T10:32:14.759Z,2.81
2018-03-03T10:33:14.732Z,2.75
2018-03-03T10:34:14.742Z,2.75
2018-03-03T10:35:14.826Z,2.81
2018-03-03T10:36:14.790Z,2.75
2018-03-03T10:38:14.821Z,2.75
2018-03-03T10:39:14.783Z,2.81
2018-03-03T10:40:14.777Z,2.81
2018-03-03T10:41:14.786Z,2.87
2018-03-03T10:42:14.796Z,2.87
2018-03-03T10:43:15.062Z,2.94
2018-03-03T10:44:21.766Z,2.87
2018-03-03T10:45:14.782Z,2.87
2018-03-03T10:47:21.045Z,2.87
2018-03-03T10:48:14.810Z,2.94
2018-03-03T10:49:14.793Z,2.94
2018-03-03T10:50:14.806Z,3
2018-03-03T10:51:14.816Z,3
2018-03-03T10:52:14.838Z,3.06
2018-03-03T10:53:14.818Z,3.06
2018-03-03T10:54:15.682Z,3.19
2018-03-03T10:55:14.840Z,3.25
2018-03-03T10:58:14.939Z,3.5
2018-03-03T10:59:14.837Z,3.5
2018-03-03T11:00:14.867Z,3.56
2018-03-03T11:01:14.836Z,3.62
2018-03-03T11:02:14.888Z,3.69
2018-03-03T11:03:14.847Z,3.81
2018-03-03T11:04:14.842Z,3.87
2018-03-03T11:05:14.879Z,3.94
2018-03-03T11:06:14.889Z,3.87
2018-03-03T11:07:14.854Z,3.94
2018-03-03T11:08:14.943Z,3.87
2018-03-03T11:09:14.888Z,4
2018-03-03T11:10:14.874Z,4.06
2018-03-03T11:11:17.248Z,4.06
2018-03-03T11:12:14.973Z,4.12
2018-03-03T11:13:14.915Z,4.12
2018-03-03T11:14:14.891Z,4.19
2018-03-03T11:15:14.934Z,4.12
2018-03-03T11:16:14.916Z,4.19
2018-03-03T11:17:14.924Z,4.12
2018-03-03T11:18:14.929Z,4.19
2018-03-03T11:19:14.928Z,4.25
2018-03-03T11:20:14.948Z,4.25
2018-03-03T11:21:14.932Z,4.25
2018-03-03T11:22:15.047Z,4.25
2018-03-03T11:23:14.944Z,4.25
2018-03-03T11:24:14.922Z,4.25
2018-03-03T11:25:14.941Z,4.37
2018-03-03T11:26:15.279Z,4.44
2018-03-03T11:28:27.256Z,4.56
2018-03-03T11:29:14.985Z,4.69
2018-03-03T11:30:14.928Z,4.69
2018-03-03T11:31:14.933Z,4.81
2018-03-03T11:32:14.950Z,4.81
2018-03-03T11:33:14.975Z,4.87
2018-03-03T11:34:14.957Z,4.94
2018-03-03T11:35:14.953Z,5
2018-03-03T11:36:14.985Z,5.06
2018-03-03T11:37:14.997Z,5.19
2018-03-03T11:38:14.955Z,5.25
2018-03-03T11:39:14.987Z,5.06
2018-03-03T11:40:14.984Z,5.06
2018-03-03T11:41:15.006Z,5.19
2018-03-03T11:42:14.972Z,5.25
2018-03-03T11:43:14.977Z,5.31
2018-03-03T11:44:14.968Z,5.37
2018-03-03T11:45:14.979Z,5.44
2018-03-03T11:46:15.356Z,5.37
2018-03-03T11:47:14.987Z,5.5
2018-03-03T11:48:14.967Z,5.44
2018-03-03T11:49:14.989Z,5.5
2018-03-03T11:50:15.015Z,5.44
2018-03-03T11:51:14.973Z,5.44
2018-03-03T11:52:14.991Z,5.37
2018-03-03T11:53:14.985Z,5.31
2018-03-03T11:54:15.001Z,5.31
2018-03-03T11:55:15.001Z,5.25
2018-03-03T11:56:15.026Z,5.25
2018-03-03T11:57:15.020Z,5.25
2018-03-03T11:58:15.226Z,5.31
2018-03-03T11:59:15.093Z,5.31
2018-03-03T12:00:15.028Z,5.37
2018-03-03T12:01:15.017Z,5.44
2018-03-03T12:02:15.031Z,5.5
2018-03-03T12:03:15.034Z,5.56
2018-03-03T12:04:15.064Z,5.56
2018-03-03T12:05:15.073Z,5.62
2018-03-03T12:06:15.049Z,5.69
2018-03-03T12:07:15.111Z,5.75
2018-03-03T12:08:15.099Z,5.69
2018-03-03T12:09:15.101Z,5.69
2018-03-03T12:10:15.103Z,5.62
2018-03-03T12:11:15.059Z,5.62
2018-03-03T12:12:15.082Z,5.69
2018-03-03T12:13:15.124Z,5.5
2018-03-03T12:14:15.140Z,5.5
2018-03-03T12:15:15.066Z,5.44
2018-03-03T12:16:15.087Z,5.5
2018-03-03T12:17:15.182Z,5.5
2018-03-03T12:18:15.102Z,5.56
2018-03-03T12:19:15.085Z,5.62
2018-03-03T12:20:15.096Z,5.69
2018-03-03T12:21:15.070Z,5.75
2018-03-03T12:22:15.529Z,5.69
2018-03-03T12:23:15.077Z,5.69
2018-03-03T12:24:15.132Z,5.75
2018-03-03T12:25:15.084Z,5.87
2018-03-03T12:26:15.096Z,6
2018-03-03T12:27:15.112Z,6.06
2018-03-03T12:28:15.151Z,6.19
2018-03-03T12:29:15.103Z,6.25
2018-03-03T12:30:15.111Z,6.25
2018-03-03T12:31:15.121Z,6.12
2018-03-03T12:32:15.131Z,6.19
2018-03-03T12:33:15.134Z,6.12
2018-03-03T12:34:15.134Z,6.12
2018-03-03T12:35:15.180Z,6.06
2018-03-03T12:36:15.156Z,6.06
2018-03-03T12:37:15.131Z,6.12
2018-03-03T12:38:15.181Z,6.19
2018-03-03T12:39:15.137Z,6.19
2018-03-03T12:40:41.407Z,6.19
2018-03-03T12:41:18.073Z,6.25
2018-03-03T12:42:15.168Z,6.25
2018-03-03T12:43:15.183Z,6.19
2018-03-03T12:44:15.236Z,6.19
2018-03-03T12:45:15.226Z,6.25
2018-03-03T12:46:15.183Z,6.25
2018-03-03T12:47:15.544Z,6.31
2018-03-03T12:48:15.205Z,6.37
2018-03-03T12:49:15.211Z,6.37
2018-03-03T12:50:15.237Z,6.44
2018-03-03T12:51:15.214Z,6.37
2018-03-03T12:52:15.286Z,6.37
2018-03-03T12:53:15.245Z,6.5
2018-03-03T12:54:15.222Z,6.62
2018-03-03T12:55:15.256Z,6.69
2018-03-03T12:56:15.284Z,6.81
2018-03-03T12:57:15.218Z,6.87
2018-03-03T12:58:15.231Z,6.94
2018-03-03T12:59:15.235Z,7
2018-03-03T13:00:15.557Z,6.94
2018-03-03T13:01:15.233Z,6.94
2018-03-03T13:02:15.306Z,7
2018-03-03T13:03:15.279Z,7.06
2018-03-03T13:04:15.244Z,7.06
2018-03-03T13:05:15.260Z,7.06
2018-03-03T13:06:15.228Z,7
2018-03-03T13:07:15.279Z,7.12
2018-03-03T13:08:15.291Z,7.19
2018-03-03T13:09:15.270Z,7.19
2018-03-03T13:10:15.260Z,7.19
2018-03-03T13:11:15.275Z,7.19
2018-03-03T13:12:15.305Z,7.25
2018-03-03T13:13:15.259Z,7.31
2018-03-03T13:14:15.290Z,7.31
2018-03-03T13:15:15.270Z,7.19
2018-03-03T13:16:15.285Z,7.12
2018-03-03T13:17:15.299Z,7.12
2018-03-03T13:18:15.330Z,7.19
2018-03-03T13:19:15.300Z,7.31
2018-03-03T13:20:15.413Z,7.19
2018-03-03T13:21:15.496Z,7.25
2018-03-03T13:22:15.445Z,7.37
2018-03-03T13:23:15.422Z,7.31
2018-03-03T13:24:15.433Z,7.25